Aviation Digital Data Service (ADDS)

Output produced by METARs form (0937 UTC 25 February 2018)
found at http://aviationweather.gov/adds/metars/
 
KDOV 250930Z AUTO 09009KT 2 3/4SM -RA BR OVC003 07/07 A3004 RMK AO2 DZB0858E00RAB00E23RAB30 SLP176 $
TAF AMD KDOV 250920Z 2509/2614 11006KT 3600 -RA BR OVC004 520103 QNH2993INS 
     BECMG 2515/2516 21009KT 4800 -SHRA BR OVC005 QNH2988INS 
     BECMG 2520/2521 33009KT 9999 NSW BKN015 OVC080 QNH2989INS 
     BECMG 2602/2603 30006KT 8000 BR FEW015 BKN160 QNH3000INS TX15/2521Z TN06/2509Z